Time;durP1;ratioP1;P1;durP2;ratioP2;P2;SDS_P1;SDS_P2;PMS_P1;PMS_P2;Temp;Humidity;BMP_temperature;BMP_pressure;BME280_temperature;BME280_humidity;BME280_pressure;Samples;Min_cycle;Max_cycle;Signal;HPM_P1;HPM_P2
2023/01/01 00:01:06;;;;;;;;;;;17.30;99.70;;;;;;5073482;28;19908;-88
2023/01/01 00:03:32;;;;;;;;;;;17.30;99.60;;;;;;5091732;28;20030;-89
2023/01/01 00:05:57;;;;;;;;;;;17.40;99.60;;;;;;5074147;28;19971;-88
2023/01/01 00:08:23;;;;;;;;;;;17.30;99.60;;;;;;5075635;28;19908;-88
2023/01/01 00:10:49;;;;;;;;;;;17.40;99.60;;;;;;5076677;28;19918;-87
2023/01/01 00:13:14;;;;;;;;;;;17.30;99.50;;;;;;5077514;28;19919;-88
2023/01/01 00:15:40;;;;;;;;;;;17.30;99.50;;;;;;5074782;28;19908;-89
2023/01/01 00:18:06;;;;;;;;;;;17.30;99.50;;;;;;5074257;28;20436;-88
2023/01/01 00:20:31;;;;;;;;;;;17.40;99.40;;;;;;5071626;28;19970;-88
2023/01/01 00:22:57;;;;;;;;;;;17.30;99.40;;;;;;5072466;28;19924;-88
2023/01/01 00:25:23;;;;;;;;;;;17.30;99.30;;;;;;5074090;28;20508;-88
2023/01/01 00:27:48;;;;;;;;;;;17.40;99.30;;;;;;5073519;28;19935;-87
2023/01/01 00:30:15;;;;;;;;;;;17.30;99.30;;;;;;5074094;28;19912;-88
2023/01/01 00:32:40;;;;;;;;;;;17.30;99.20;;;;;;5072822;28;20132;-87
2023/01/01 00:35:06;;;;;;;;;;;17.30;99.20;;;;;;5088729;28;19970;-88
2023/01/01 00:37:32;;;;;;;;;;;17.30;99.20;;;;;;5071538;28;20036;-88
2023/01/01 00:39:57;;;;;;;;;;;17.30;99.20;;;;;;5073476;28;19961;-89
2023/01/01 00:42:23;;;;;;;;;;;17.30;99.10;;;;;;5073174;28;19915;-88
2023/01/01 00:44:48;;;;;;;;;;;17.30;99.10;;;;;;5072150;28;19938;-88
2023/01/01 00:47:14;;;;;;;;;;;17.30;99.10;;;;;;5073072;28;19916;-87
2023/01/01 00:49:40;;;;;;;;;;;17.30;99.20;;;;;;5072961;28;19916;-88
2023/01/01 00:52:05;;;;;;;;;;;17.30;99.40;;;;;;5091681;28;20148;-89
2023/01/01 00:54:31;;;;;;;;;;;17.30;99.10;;;;;;5074599;28;19947;-88
2023/01/01 00:56:57;;;;;;;;;;;17.30;99.10;;;;;;5074679;28;20233;-88
2023/01/01 00:59:22;;;;;;;;;;;17.30;99.10;;;;;;5075426;28;20198;-88
2023/01/01 01:01:48;;;;;;;;;;;17.30;99.00;;;;;;5094273;28;19981;-89
2023/01/01 01:04:45;;;;;;;;;;;17.30;98.90;;;;;;5041342;28;20336;-89
2023/01/01 01:10:35;;;;;;;;;;;17.30;98.90;;;;;;5092583;28;20498;-89
2023/01/01 01:13:01;;;;;;;;;;;17.30;98.90;;;;;;5072718;28;20092;-88
2023/01/01 01:15:27;;;;;;;;;;;17.30;98.90;;;;;;5074097;28;19915;-89
2023/01/01 01:17:53;;;;;;;;;;;17.30;98.90;;;;;;5074463;28;19908;-88
2023/01/01 01:20:18;;;;;;;;;;;17.30;98.80;;;;;;5074739;28;19908;-89
2023/01/01 01:22:44;;;;;;;;;;;17.30;98.80;;;;;;5080728;28;20007;-88
2023/01/01 01:25:10;;;;;;;;;;;17.20;98.70;;;;;;5075458;28;19908;-88
2023/01/01 01:27:36;;;;;;;;;;;17.20;98.60;;;;;;5091606;28;19935;-88
2023/01/01 01:30:01;;;;;;;;;;;17.20;98.70;;;;;;5091229;28;19912;-88
2023/01/01 01:32:27;;;;;;;;;;;17.20;98.60;;;;;;5071393;28;19908;-88
2023/01/01 01:34:53;;;;;;;;;;;17.20;98.60;;;;;;5074413;28;19993;-88
2023/01/01 01:37:18;;;;;;;;;;;17.20;98.50;;;;;;5074610;28;19934;-88
2023/01/01 01:39:44;;;;;;;;;;;17.20;98.50;;;;;;5075077;28;20155;-88
2023/01/01 01:42:16;;;;;;;;;;;17.20;98.50;;;;;;5093066;28;20097;-88
2023/01/01 01:44:48;;;;;;;;;;;17.20;98.40;;;;;;5074918;28;19912;-88
2023/01/01 01:47:19;;;;;;;;;;;17.20;98.40;;;;;;5073835;28;19916;-88
2023/01/01 01:49:45;;;;;;;;;;;17.20;98.30;;;;;;5073680;28;19935;-88
2023/01/01 01:52:23;;;;;;;;;;;17.20;98.60;;;;;;5072092;28;20202;-89
2023/01/01 01:54:49;;;;;;;;;;;17.20;98.30;;;;;;5050426;28;20251;-88
2023/01/01 01:57:15;;;;;;;;;;;17.20;98.20;;;;;;5052051;28;19919;-89
2023/01/01 01:59:54;;;;;;;;;;;17.20;98.20;;;;;;5070754;28;20254;-88
2023/01/01 02:02:28;;;;;;;;;;;17.20;98.10;;;;;;5053009;28;20271;-88
2023/01/01 02:04:54;;;;;;;;;;;17.20;98.10;;;;;;5054890;28;20298;-89
2023/01/01 02:07:21;;;;;;;;;;;17.20;98.00;;;;;;5054792;28;19909;-88
2023/01/01 02:09:47;;;;;;;;;;;17.20;98.00;;;;;;5054761;28;19908;-88
2023/01/01 02:12:12;;;;;;;;;;;17.20;98.00;;;;;;5055632;28;20160;-88
2023/01/01 02:14:38;;;;;;;;;;;17.20;97.90;;;;;;5055282;28;19908;-88
2023/01/01 02:17:08;;;;;;;;;;;17.20;97.90;;;;;;5055390;28;19920;-87
2023/01/01 02:19:54;;;;;;;;;;;17.20;97.90;;;;;;5055187;28;19912;-88
2023/01/01 02:22:25;;;;;;;;;;;17.20;97.70;;;;;;5057070;28;20015;-87
2023/01/01 02:25:19;;;;;;;;;;;17.20;97.70;;;;;;5056044;28;19909;-88
2023/01/01 02:27:48;;;;;;;;;;;17.10;97.50;;;;;;5053729;28;19918;-88
2023/01/01 02:30:13;;;;;;;;;;;17.20;97.50;;;;;;5054563;28;19927;-88
2023/01/01 02:32:46;;;;;;;;;;;17.10;97.50;;;;;;5058320;28;19913;-88
2023/01/01 02:35:33;;;;;;;;;;;17.10;97.40;;;;;;5055131;28;19912;-88
2023/01/01 02:38:02;;;;;;;;;;;17.10;97.30;;;;;;5071649;28;20067;-88
2023/01/01 02:40:28;;;;;;;;;;;17.10;97.30;;;;;;5054732;28;19974;-87
2023/01/01 02:42:55;;;;;;;;;;;17.10;97.30;;;;;;5053684;28;19916;-88
2023/01/01 02:45:21;;;;;;;;;;;17.10;97.30;;;;;;5072688;28;20222;-89
2023/01/01 02:47:46;;;;;;;;;;;17.10;97.20;;;;;;5053510;28;19982;-88
2023/01/01 02:50:20;;;;;;;;;;;17.10;97.10;;;;;;5052524;28;19917;-87
2023/01/01 02:53:06;;;;;;;;;;;17.10;97.10;;;;;;5053402;28;20011;-88
2023/01/01 02:55:36;;;;;;;;;;;17.10;97.00;;;;;;5072714;28;19916;-88
2023/01/01 03:00:17;;;;;;;;;;;17.10;97.00;;;;;;5055345;28;19920;-89
2023/01/01 03:00:49;;;;;;;;;;;17.10;96.90;;;;;;5071900;28;20025;-88
2023/01/01 03:03:22;;;;;;;;;;;17.10;96.90;;;;;;5071815;28;19916;-89
2023/01/01 03:08:53;;;;;;;;;;;17.10;96.80;;;;;;5072448;28;19919;-88
2023/01/01 03:11:21;;;;;;;;;;;17.10;96.80;;;;;;5055695;28;19912;-89
2023/01/01 03:13:59;;;;;;;;;;;17.10;96.70;;;;;;5056224;28;20272;-87
2023/01/01 03:16:43;;;;;;;;;;;17.10;96.70;;;;;;5055824;28;19909;-88
2023/01/01 03:19:18;;;;;;;;;;;17.10;96.70;;;;;;5054906;28;19909;-88
2023/01/01 03:21:56;;;;;;;;;;;17.10;96.60;;;;;;5054969;28;19913;-88
2023/01/01 03:24:28;;;;;;;;;;;17.10;96.50;;;;;;5055635;28;19938;-89
2023/01/01 03:26:56;;;;;;;;;;;17.10;96.40;;;;;;5058519;28;19908;-88
2023/01/01 03:29:23;;;;;;;;;;;17.10;96.50;;;;;;5058958;28;19909;-88
2023/01/01 03:31:59;;;;;;;;;;;17.10;96.40;;;;;;5057686;28;20209;-88
2023/01/01 03:34:29;;;;;;;;;;;17.10;96.30;;;;;;5058260;28;20179;-88
2023/01/01 03:36:56;;;;;;;;;;;17.00;96.40;;;;;;5059540;28;19919;-89
2023/01/01 03:39:23;;;;;;;;;;;17.10;96.30;;;;;;5076479;28;19974;-89
2023/01/01 03:42:08;;;;;;;;;;;17.00;96.20;;;;;;5077782;28;19908;-88
2023/01/01 03:44:45;;;;;;;;;;;17.00;96.20;;;;;;5061188;28;19999;-89
2023/01/01 03:47:11;;;;;;;;;;;17.00;96.20;;;;;;5061555;28;19994;-88
2023/01/01 03:49:37;;;;;;;;;;;17.00;96.10;;;;;;5061186;28;20059;-88
2023/01/01 03:52:21;;;;;;;;;;;17.00;96.10;;;;;;5060922;28;19965;-88
2023/01/01 03:55:05;;;;;;;;;;;17.00;96.00;;;;;;5059463;28;20030;-89
2023/01/01 03:57:30;;;;;;;;;;;17.00;96.00;;;;;;5059622;28;19909;-88
2023/01/01 04:00:03;;;;;;;;;;;17.10;95.80;;;;;;5058033;28;19909;-88
2023/01/01 04:02:58;;;;;;;;;;;17.10;95.60;;;;;;5057923;28;19999;-88
2023/01/01 04:05:24;;;;;;;;;;;17.20;95.40;;;;;;5045099;28;19924;-88
2023/01/01 04:07:50;;;;;;;;;;;17.30;95.10;;;;;;5057489;28;19913;-88
2023/01/01 04:10:16;;;;;;;;;;;17.40;94.80;;;;;;5058311;28;20302;-89
2023/01/01 04:12:46;;;;;;;;;;;17.50;94.50;;;;;;5057955;28;19913;-89
2023/01/01 04:15:12;;;;;;;;;;;17.60;94.20;;;;;;5058177;28;19919;-88
2023/01/01 04:17:38;;;;;;;;;;;17.70;93.80;;;;;;5076367;28;19909;-88
2023/01/01 04:20:04;;;;;;;;;;;17.70;93.60;;;;;;5076180;28;20240;-89
2023/01/01 04:22:29;;;;;;;;;;;17.80;93.50;;;;;;5074733;28;19923;-88
2023/01/01 04:24:55;;;;;;;;;;;17.80;93.40;;;;;;5056832;28;19908;-89
2023/01/01 04:27:21;;;;;;;;;;;17.80;93.30;;;;;;5057066;28;19908;-88
2023/01/01 04:29:46;;;;;;;;;;;17.80;93.30;;;;;;5058467;28;20069;-90
2023/01/01 04:32:12;;;;;;;;;;;17.80;93.20;;;;;;5057377;28;20014;-88
2023/01/01 04:34:38;;;;;;;;;;;17.70;93.10;;;;;;5058499;28;19965;-88
2023/01/01 04:37:03;;;;;;;;;;;17.70;93.20;;;;;;5059214;28;19909;-89
2023/01/01 04:39:29;;;;;;;;;;;17.70;93.20;;;;;;5058243;28;19908;-88
2023/01/01 04:41:55;;;;;;;;;;;17.60;93.30;;;;;;5057497;28;20263;-88
2023/01/01 04:44:20;;;;;;;;;;;17.60;93.30;;;;;;5061916;28;19924;-89
2023/01/01 04:46:46;;;;;;;;;;;17.60;93.30;;;;;;5077006;28;19948;-88
2023/01/01 04:49:11;;;;;;;;;;;17.60;93.30;;;;;;5057643;28;19920;-90
2023/01/01 04:51:37;;;;;;;;;;;17.50;93.40;;;;;;5075046;28;19912;-86
2023/01/01 04:54:03;;;;;;;;;;;17.50;93.40;;;;;;5058748;28;19908;-89
2023/01/01 04:56:29;;;;;;;;;;;17.50;93.40;;;;;;5058297;28;20069;-88
2023/01/01 04:58:56;;;;;;;;;;;17.50;93.50;;;;;;5058591;28;19919;-88
2023/01/01 05:01:23;;;;;;;;;;;17.40;93.50;;;;;;5057259;28;19919;-88
2023/01/01 05:03:49;;;;;;;;;;;17.40;93.60;;;;;;5075121;28;19923;-88
2023/01/01 05:06:14;;;;;;;;;;;17.40;93.70;;;;;;5058196;28;20167;-88
2023/01/01 05:08:41;;;;;;;;;;;17.30;93.80;;;;;;5056848;28;20376;-89
2023/01/01 05:11:09;;;;;;;;;;;17.30;93.80;;;;;;5058195;28;19966;-89
2023/01/01 05:13:35;;;;;;;;;;;17.30;93.90;;;;;;5058047;28;20250;-89
2023/01/01 05:16:02;;;;;;;;;;;17.30;93.90;;;;;;5058774;28;19908;-88
2023/01/01 05:18:27;;;;;;;;;;;17.30;94.00;;;;;;5057397;28;19912;-88
2023/01/01 05:20:57;;;;;;;;;;;17.20;94.00;;;;;;5059161;28;19941;-88
2023/01/01 05:23:23;;;;;;;;;;;17.20;94.10;;;;;;5076358;28;19909;-88
2023/01/01 05:25:48;;;;;;;;;;;17.20;94.00;;;;;;5059055;28;19908;-88
2023/01/01 05:28:14;;;;;;;;;;;17.20;94.10;;;;;;5059454;28;19912;-88
2023/01/01 05:30:40;;;;;;;;;;;17.20;94.10;;;;;;5075874;28;19920;-88
2023/01/01 05:33:05;;;;;;;;;;;17.10;94.20;;;;;;5074962;28;19914;-88
2023/01/01 05:35:31;;;;;;;;;;;17.10;94.20;;;;;;5075854;28;19915;-88
2023/01/01 05:37:57;;;;;;;;;;;17.10;94.20;;;;;;5059034;28;19931;-88
2023/01/01 05:40:22;;;;;;;;;;;17.10;94.20;;;;;;5059322;28;19912;-88
2023/01/01 05:42:48;;;;;;;;;;;17.10;94.20;;;;;;5058562;28;19908;-88
2023/01/01 05:45:14;;;;;;;;;;;17.10;94.10;;;;;;5057716;28;20014;-88
2023/01/01 05:47:39;;;;;;;;;;;17.10;94.20;;;;;;5074501;28;20266;-88
2023/01/01 05:50:05;;;;;;;;;;;17.10;94.20;;;;;;5057402;28;20077;-88
2023/01/01 05:52:31;;;;;;;;;;;17.10;94.10;;;;;;5057970;28;19908;-88
2023/01/01 05:54:57;;;;;;;;;;;17.10;94.00;;;;;;5057809;28;19916;-88
2023/01/01 05:57:23;;;;;;;;;;;17.10;94.00;;;;;;5057087;28;19962;-88
2023/01/01 05:59:48;;;;;;;;;;;17.10;93.90;;;;;;5057389;28;19940;-88
2023/01/01 06:02:14;;;;;;;;;;;17.20;94.00;;;;;;5056394;28;20219;-88
2023/01/01 06:04:39;;;;;;;;;;;17.20;93.90;;;;;;5056726;28;20003;-87
2023/01/01 06:07:05;;;;;;;;;;;17.20;93.70;;;;;;5074107;28;20195;-87
2023/01/01 06:09:31;;;;;;;;;;;17.30;93.70;;;;;;5057040;28;19909;-88
2023/01/01 06:11:56;;;;;;;;;;;17.30;93.60;;;;;;5057310;28;20201;-88
2023/01/01 06:14:22;;;;;;;;;;;17.30;93.40;;;;;;5074996;28;19919;-88
2023/01/01 06:16:47;;;;;;;;;;;17.40;93.50;;;;;;5056907;28;19909;-88
2023/01/01 06:19:13;;;;;;;;;;;17.30;93.30;;;;;;5058092;28;20302;-88
2023/01/01 06:21:39;;;;;;;;;;;17.30;93.20;;;;;;5057661;28;19999;-87
2023/01/01 06:24:04;;;;;;;;;;;17.30;93.20;;;;;;5056431;28;19912;-88
2023/01/01 06:26:31;;;;;;;;;;;17.40;93.20;;;;;;5055496;28;19905;-88
2023/01/01 06:28:58;;;;;;;;;;;17.40;93.10;;;;;;5055700;28;20057;-88
2023/01/01 06:31:23;;;;;;;;;;;17.40;93.10;;;;;;5055430;28;19912;-88
2023/01/01 06:33:52;;;;;;;;;;;17.40;93.10;;;;;;5055384;28;20184;-89
2023/01/01 06:36:18;;;;;;;;;;;17.40;93.10;;;;;;5055556;28;19923;-89
2023/01/01 06:38:45;;;;;;;;;;;17.40;93.10;;;;;;5055935;28;19938;-88
2023/01/01 06:41:12;;;;;;;;;;;17.30;93.10;;;;;;5054443;28;19999;-88
2023/01/01 06:43:38;;;;;;;;;;;17.30;93.10;;;;;;5055395;28;19919;-88
2023/01/01 06:46:05;;;;;;;;;;;17.30;93.10;;;;;;5055060;28;19908;-88
2023/01/01 06:48:32;;;;;;;;;;;17.30;93.20;;;;;;5053466;28;19909;-88
2023/01/01 06:51:03;;;;;;;;;;;17.30;93.20;;;;;;5072834;28;20039;-88
2023/01/01 06:53:28;;;;;;;;;;;17.30;93.30;;;;;;5055991;28;19981;-88
2023/01/01 06:55:54;;;;;;;;;;;17.30;93.30;;;;;;5056041;28;19916;-88
2023/01/01 06:58:19;;;;;;;;;;;17.20;93.30;;;;;;5073790;28;20050;-88
2023/01/01 07:00:45;;;;;;;;;;;17.20;93.30;;;;;;5056485;28;19990;-88
2023/01/01 07:03:11;;;;;;;;;;;17.20;93.30;;;;;;5056312;28;19916;-88
2023/01/01 07:05:36;;;;;;;;;;;17.20;93.30;;;;;;5057185;28;19909;-87
2023/01/01 07:08:02;;;;;;;;;;;17.20;93.30;;;;;;5056325;28;19919;-88
2023/01/01 07:10:28;;;;;;;;;;;17.20;93.30;;;;;;5073817;28;20317;-88
2023/01/01 07:12:54;;;;;;;;;;;17.20;93.30;;;;;;5056451;28;19995;-88
2023/01/01 07:15:19;;;;;;;;;;;17.20;93.40;;;;;;5056135;28;19909;-88
2023/01/01 07:17:45;;;;;;;;;;;17.20;93.30;;;;;;5072507;28;20053;-88
2023/01/01 07:20:11;;;;;;;;;;;17.20;93.40;;;;;;5055896;28;19909;-88
2023/01/01 07:22:37;;;;;;;;;;;17.20;93.40;;;;;;5056179;28;19918;-88
2023/01/01 07:25:02;;;;;;;;;;;17.20;93.40;;;;;;5074277;28;19915;-88
2023/01/01 07:27:28;;;;;;;;;;;17.10;93.40;;;;;;5073302;28;19908;-89
2023/01/01 07:29:54;;;;;;;;;;;17.10;93.50;;;;;;5055692;28;19947;-88
2023/01/01 07:32:19;;;;;;;;;;;17.10;93.50;;;;;;5056621;28;19999;-87
2023/01/01 07:34:45;;;;;;;;;;;17.10;93.50;;;;;;5057501;28;19908;-88
2023/01/01 07:37:10;;;;;;;;;;;17.10;93.50;;;;;;5056961;28;19909;-88
2023/01/01 07:39:36;;;;;;;;;;;17.10;93.50;;;;;;5056659;28;20023;-88
2023/01/01 07:42:02;;;;;;;;;;;17.10;93.60;;;;;;5055624;28;20014;-88
2023/01/01 07:44:27;;;;;;;;;;;17.10;93.60;;;;;;5055839;28;19974;-87
2023/01/01 07:47:13;;;;;;;;;;;17.10;93.60;;;;;;5055115;28;19913;-88
2023/01/01 07:49:38;;;;;;;;;;;17.10;93.60;;;;;;5072968;28;19908;-88
2023/01/01 07:52:04;;;;;;;;;;;17.10;93.60;;;;;;5054975;28;20465;-89
2023/01/01 07:54:29;;;;;;;;;;;17.10;93.60;;;;;;5055919;28;19998;-88
2023/01/01 07:56:55;;;;;;;;;;;17.10;93.60;;;;;;5056359;28;20233;-89
2023/01/01 07:59:21;;;;;;;;;;;17.10;93.50;;;;;;5055601;28;19970;-88
2023/01/01 08:01:46;;;;;;;;;;;17.10;93.50;;;;;;5055801;28;20229;-88
2023/01/01 08:04:12;;;;;;;;;;;17.10;93.50;;;;;;5054629;28;19947;-88
2023/01/01 08:06:38;;;;;;;;;;;17.10;93.50;;;;;;5054909;28;20144;-88
2023/01/01 08:09:03;;;;;;;;;;;17.10;93.50;;;;;;5062581;28;20202;-88
2023/01/01 08:11:29;;;;;;;;;;;17.10;93.50;;;;;;5074637;28;19965;-88
2023/01/01 08:13:54;;;;;;;;;;;17.10;93.50;;;;;;5075847;28;19970;-88
2023/01/01 08:16:20;;;;;;;;;;;17.10;93.50;;;;;;5075025;28;19908;-88
2023/01/01 08:18:46;;;;;;;;;;;17.10;93.50;;;;;;5056500;28;19915;-88
2023/01/01 08:21:11;;;;;;;;;;;17.10;93.50;;;;;;5076028;28;20187;-88
2023/01/01 08:23:37;;;;;;;;;;;17.10;93.50;;;;;;5060053;28;20102;-90
2023/01/01 08:26:03;;;;;;;;;;;17.10;93.40;;;;;;5076467;28;19913;-88
2023/01/01 08:28:28;;;;;;;;;;;17.10;93.40;;;;;;5058424;28;20391;-88
2023/01/01 08:30:54;;;;;;;;;;;17.10;93.50;;;;;;5057356;28;19913;-88
2023/01/01 08:33:21;;;;;;;;;;;17.10;93.50;;;;;;5057474;28;19908;-88
2023/01/01 08:35:48;;;;;;;;;;;17.10;93.50;;;;;;5057117;28;20210;-87
2023/01/01 08:38:13;;;;;;;;;;;17.10;93.50;;;;;;5058359;28;19909;-88
2023/01/01 08:40:39;;;;;;;;;;;17.10;93.60;;;;;;5058070;28;19909;-87
2023/01/01 08:43:04;;;;;;;;;;;17.10;93.70;;;;;;5075784;28;20190;-88
2023/01/01 08:45:30;;;;;;;;;;;17.00;93.70;;;;;;5060003;28;19985;-87
2023/01/01 08:47:56;;;;;;;;;;;17.00;93.70;;;;;;5058789;28;19931;-88
2023/01/01 08:50:21;;;;;;;;;;;17.00;93.80;;;;;;5058060;28;19912;-87
2023/01/01 08:52:47;;;;;;;;;;;17.00;93.80;;;;;;5057362;28;19909;-88
2023/01/01 08:55:13;;;;;;;;;;;17.00;93.80;;;;;;5075345;28;20007;-88
2023/01/01 08:57:38;;;;;;;;;;;17.00;93.90;;;;;;5055249;28;20160;-88
2023/01/01 09:00:04;;;;;;;;;;;17.00;93.90;;;;;;5056130;28;19916;-88
2023/01/01 09:02:30;;;;;;;;;;;17.00;93.90;;;;;;5057249;28;19986;-87
2023/01/01 09:04:56;;;;;;;;;;;17.00;93.90;;;;;;5058415;28;19990;-87
2023/01/01 09:07:21;;;;;;;;;;;17.00;94.00;;;;;;5057605;28;20241;-88
2023/01/01 09:09:47;;;;;;;;;;;17.00;93.90;;;;;;5057468;28;20352;-88
2023/01/01 09:12:14;;;;;;;;;;;17.00;93.90;;;;;;5058013;28;20040;-87
2023/01/01 09:14:39;;;;;;;;;;;17.10;93.80;;;;;;5058142;28;19908;-88
2023/01/01 09:17:05;;;;;;;;;;;17.10;93.70;;;;;;5075480;28;20315;-88
2023/01/01 09:19:30;;;;;;;;;;;17.20;93.60;;;;;;5075063;28;19914;-88
2023/01/01 09:21:56;;;;;;;;;;;17.20;93.50;;;;;;5057545;28;20187;-88
2023/01/01 09:24:22;;;;;;;;;;;17.30;93.40;;;;;;5057348;28;19908;-88
2023/01/01 09:26:47;;;;;;;;;;;17.30;93.20;;;;;;5058395;28;20011;-87
2023/01/01 09:29:17;;;;;;;;;;;17.30;93.10;;;;;;5057243;28;20011;-88
2023/01/01 09:31:43;;;;;;;;;;;17.40;93.10;;;;;;5055300;28;19962;-88
2023/01/01 09:34:08;;;;;;;;;;;17.40;92.90;;;;;;5073499;28;19915;-87
2023/01/01 09:36:34;;;;;;;;;;;17.40;92.80;;;;;;5057077;28;19912;-87
2023/01/01 09:39:01;;;;;;;;;;;17.40;92.80;;;;;;5055268;28;19904;-87
2023/01/01 09:41:30;;;;;;;;;;;17.50;92.70;;;;;;5055762;28;19909;-87
2023/01/01 09:43:58;;;;;;;;;;;17.50;92.70;;;;;;5073625;28;19908;-88
2023/01/01 09:46:24;;;;;;;;;;;17.50;92.60;;;;;;5056717;28;20279;-88
2023/01/01 09:49:01;;;;;;;;;;;17.50;92.60;;;;;;5057072;28;19909;-89
2023/01/01 09:51:29;;;;;;;;;;;17.50;92.60;;;;;;5056969;28;19986;-88
2023/01/01 09:54:21;;;;;;;;;;;17.50;92.70;;;;;;5073531;28;20081;-88
2023/01/01 09:56:50;;;;;;;;;;;17.50;92.90;;;;;;5053689;28;20072;-88
2023/01/01 09:59:15;;;;;;;;;;;17.50;93.30;;;;;;5056198;28;19909;-88
2023/01/01 10:02:13;;;;;;;;;;;17.50;93.20;;;;;;5056085;28;20183;-88
2023/01/01 10:05:02;;;;;;;;;;;17.50;93.40;;;;;;5014374;28;19928;-88
2023/01/01 10:07:33;;;;;;;;;;;17.60;93.70;;;;;;5045921;28;20419;-87
2023/01/01 10:09:59;;;;;;;;;;;17.50;93.60;;;;;;5033180;28;20446;-87
2023/01/01 10:12:30;;;;;;;;;;;17.50;93.80;;;;;;5033901;28;19913;-87
2023/01/01 10:15:14;;;;;;;;;;;17.50;94.00;;;;;;5033466;28;19920;-88
2023/01/01 10:17:42;;;;;;;;;;;17.40;94.10;;;;;;5034416;28;19909;-88
2023/01/01 10:20:17;;;;;;;;;;;17.40;94.30;;;;;;5052795;28;19909;-88
2023/01/01 10:22:45;;;;;;;;;;;17.40;94.40;;;;;;5032874;28;19970;-88
2023/01/01 10:25:19;;;;;;;;;;;17.40;94.60;;;;;;5033257;28;19908;-88
2023/01/01 10:28:04;;;;;;;;;;;17.30;94.70;;;;;;5033166;28;19916;-87
2023/01/01 10:30:30;;;;;;;;;;;17.30;94.80;;;;;;5032160;28;19913;-88
2023/01/01 10:32:56;;;;;;;;;;;17.30;95.00;;;;;;5049559;28;19920;-89
2023/01/01 10:35:29;;;;;;;;;;;17.30;95.00;;;;;;5033621;28;19973;-88
2023/01/01 10:37:55;;;;;;;;;;;17.30;95.00;;;;;;5051651;28;19908;-88
2023/01/01 10:40:26;;;;;;;;;;;17.30;95.10;;;;;;5034540;28;19913;-88
2023/01/01 10:42:56;;;;;;;;;;;17.30;95.10;;;;;;5049903;28;20263;-87
2023/01/01 10:45:32;;;;;;;;;;;17.30;95.10;;;;;;5034542;28;19909;-88
2023/01/01 10:48:15;;;;;;;;;;;17.30;95.10;;;;;;5036358;28;20186;-88
2023/01/01 10:50:46;;;;;;;;;;;17.30;95.10;;;;;;5052230;28;20002;-88
2023/01/01 10:53:24;;;;;;;;;;;17.30;95.10;;;;;;5035272;28;20290;-88
2023/01/01 10:55:50;;;;;;;;;;;17.30;95.10;;;;;;5033615;28;19959;-88
2023/01/01 10:58:32;;;;;;;;;;;17.30;95.10;;;;;;5034300;28;19909;-88
2023/01/01 11:00:59;;;;;;;;;;;17.30;95.10;;;;;;5033903;28;19995;-88
2023/01/01 11:03:24;;;;;;;;;;;17.30;95.10;;;;;;5046889;28;19989;-87
2023/01/01 11:05:59;;;;;;;;;;;17.30;95.10;;;;;;5055276;28;20301;-88
2023/01/01 11:08:26;;;;;;;;;;;17.40;95.10;;;;;;5054681;28;19915;-87
2023/01/01 11:10:52;;;;;;;;;;;17.30;95.10;;;;;;5055003;28;20317;-87
2023/01/01 11:13:19;;;;;;;;;;;17.30;95.10;;;;;;5073053;28;19908;-88
2023/01/01 11:15:45;;;;;;;;;;;17.30;95.10;;;;;;5054682;28;19917;-88
2023/01/01 11:18:15;;;;;;;;;;;17.30;95.10;;;;;;5055076;28;19908;-87
2023/01/01 11:20:41;;;;;;;;;;;17.40;95.10;;;;;;5071051;28;20350;-88
2023/01/01 11:23:28;;;;;;;;;;;17.40;95.10;;;;;;5052894;28;19908;-88
2023/01/01 11:26:03;;;;;;;;;;;17.40;95.20;;;;;;5053151;28;20301;-88
2023/01/01 11:28:30;;;;;;;;;;;17.40;95.20;;;;;;5053573;28;20264;-87
2023/01/01 11:31:14;;;;;;;;;;;17.50;95.20;;;;;;5076534;28;19923;-87
2023/01/01 11:33:45;;;;;;;;;;;17.40;95.30;;;;;;5056908;28;19916;-87
2023/01/01 11:36:12;;;;;;;;;;;17.40;95.30;;;;;;5054061;28;20263;-88
2023/01/01 11:38:37;;;;;;;;;;;17.50;95.30;;;;;;5052534;28;19909;-88
2023/01/01 11:41:04;;;;;;;;;;;17.50;95.40;;;;;;5053451;28;19977;-88
2023/01/01 11:43:34;;;;;;;;;;;17.50;95.50;;;;;;5072594;28;20076;-87
2023/01/01 11:46:05;;;;;;;;;;;17.50;95.50;;;;;;5055763;28;20237;-87
2023/01/01 11:48:32;;;;;;;;;;;17.50;95.60;;;;;;5057610;28;20156;-88
2023/01/01 11:51:05;;;;;;;;;;;17.50;95.70;;;;;;5075233;28;19913;-87
2023/01/01 11:53:37;;;;;;;;;;;17.50;95.70;;;;;;5058516;28;19995;-87
2023/01/01 11:56:17;;;;;;;;;;;17.50;95.70;;;;;;5076501;28;20003;-88
2023/01/01 11:58:57;;;;;;;;;;;17.50;95.70;;;;;;5057079;28;19909;-87
2023/01/01 12:01:41;;;;;;;;;;;17.50;95.70;;;;;;5057824;28;19943;-88
2023/01/01 12:04:12;;;;;;;;;;;17.50;95.70;;;;;;5057468;28;20252;-87
2023/01/01 12:06:48;;;;;;;;;;;17.50;95.70;;;;;;5056795;28;19995;-87
2023/01/01 12:09:20;;;;;;;;;;;17.50;95.70;;;;;;5056172;28;19916;-87
2023/01/01 12:11:48;;;;;;;;;;;17.50;95.70;;;;;;5055932;28;19961;-87
2023/01/01 12:14:20;;;;;;;;;;;17.50;95.80;;;;;;5057179;28;19934;-87
2023/01/01 12:16:55;;;;;;;;;;;17.50;96.00;;;;;;5056630;28;19913;-87
2023/01/01 12:19:24;;;;;;;;;;;17.50;96.10;;;;;;5056368;28;20289;-88
2023/01/01 12:21:53;;;;;;;;;;;17.50;96.10;;;;;;5055265;28;19909;-87
2023/01/01 12:24:19;;;;;;;;;;;17.50;96.10;;;;;;5055740;28;20259;-88
2023/01/01 12:27:03;;;;;;;;;;;17.50;96.00;;;;;;5056730;28;19919;-87
2023/01/01 12:30:01;;;;;;;;;;;17.50;96.00;;;;;;5073360;28;19908;-87
2023/01/01 12:32:26;;;;;;;;;;;17.50;96.00;;;;;;5021115;28;20252;-87
2023/01/01 12:35:04;;;;;;;;;;;17.50;96.00;;;;;;5053938;28;19916;-87
2023/01/01 12:37:37;;;;;;;;;;;17.50;96.00;;;;;;5072288;28;20160;-86
2023/01/01 12:40:19;;;;;;;;;;;17.50;96.10;;;;;;5031514;28;19978;-88
2023/01/01 12:42:50;;;;;;;;;;;17.50;97.00;;;;;;5053444;28;20286;-87
2023/01/01 12:45:39;;;;;;;;;;;17.50;97.00;;;;;;5071632;28;19913;-87
2023/01/01 12:48:05;;;;;;;;;;;17.50;97.00;;;;;;5064037;28;19909;-87
2023/01/01 12:50:39;;;;;;;;;;;17.50;97.00;;;;;;5054824;28;19935;-87
2023/01/01 12:53:17;;;;;;;;;;;17.50;96.90;;;;;;5053240;28;19939;-88
2023/01/01 12:55:49;;;;;;;;;;;17.50;96.90;;;;;;5053922;28;20289;-88
2023/01/01 12:58:18;;;;;;;;;;;17.50;96.80;;;;;;5053075;28;20144;-88
2023/01/01 13:00:52;;;;;;;;;;;17.50;96.90;;;;;;5053371;28;19916;-87
2023/01/01 13:03:20;;;;;;;;;;;17.40;96.80;;;;;;5055214;28;19920;-88
2023/01/01 13:05:51;;;;;;;;;;;17.40;96.80;;;;;;5054131;28;19935;-88
2023/01/01 13:08:17;;;;;;;;;;;17.50;96.90;;;;;;5053605;28;19909;-87
2023/01/01 13:10:44;;;;;;;;;;;17.40;96.90;;;;;;5055854;28;19913;-87
2023/01/01 13:13:11;;;;;;;;;;;17.40;96.90;;;;;;5054430;28;20000;-87
2023/01/01 13:15:37;;;;;;;;;;;17.40;97.00;;;;;;5053974;28;20271;-88
2023/01/01 13:18:23;;;;;;;;;;;17.40;97.00;;;;;;5055502;28;19913;-87
2023/01/01 13:20:51;;;;;;;;;;;17.40;97.10;;;;;;5055443;28;20178;-87
2023/01/01 13:23:33;;;;;;;;;;;17.40;98.00;;;;;;5056433;28;19916;-87
2023/01/01 13:26:17;;;;;;;;;;;17.40;98.40;;;;;;5055223;28;20167;-88
2023/01/01 13:29:08;;;;;;;;;;;17.40;98.00;;;;;;5055057;28;19915;-87
2023/01/01 13:31:37;;;;;;;;;;;17.40;97.90;;;;;;5056038;28;20007;-87
2023/01/01 13:34:21;;;;;;;;;;;17.40;97.80;;;;;;5055121;28;19909;-87
2023/01/01 13:36:47;;;;;;;;;;;17.30;97.80;;;;;;5052926;28;20275;-87
2023/01/01 13:39:32;;;;;;;;;;;17.30;97.70;;;;;;5053211;28;19909;-87
2023/01/01 13:41:58;;;;;;;;;;;17.30;97.70;;;;;;5052585;28;19923;-87
2023/01/01 13:44:24;;;;;;;;;;;17.30;97.70;;;;;;5069109;28;19909;-87
2023/01/01 13:46:58;;;;;;;;;;;17.30;97.70;;;;;;5069919;28;20252;-87
2023/01/01 13:49:24;;;;;;;;;;;17.30;97.70;;;;;;5054499;28;20178;-87
2023/01/01 13:52:08;;;;;;;;;;;17.30;97.70;;;;;;5055267;28;20304;-87
2023/01/01 13:54:38;;;;;;;;;;;17.30;97.60;;;;;;5054972;28;20015;-87
2023/01/01 13:57:30;;;;;;;;;;;17.30;97.60;;;;;;5072880;28;20256;-87
2023/01/01 14:00:00;;;;;;;;;;;17.30;97.50;;;;;;5054276;28;20159;-87
2023/01/01 14:02:46;;;;;;;;;;;17.30;97.50;;;;;;5050219;28;19916;-86
2023/01/01 14:05:15;;;;;;;;;;;17.30;97.40;;;;;;5039079;28;19908;-87
2023/01/01 14:07:46;;;;;;;;;;;17.30;97.30;;;;;;5049062;28;19940;-87
2023/01/01 14:10:11;;;;;;;;;;;17.30;97.20;;;;;;5028633;28;19909;-87
2023/01/01 14:12:37;;;;;;;;;;;17.30;97.20;;;;;;5051816;28;19923;-87
2023/01/01 14:15:13;;;;;;;;;;;17.30;97.10;;;;;;5068032;28;19908;-88
2023/01/01 14:17:40;;;;;;;;;;;17.30;97.10;;;;;;5070575;28;20171;-87
2023/01/01 14:20:07;;;;;;;;;;;17.30;97.00;;;;;;5053022;28;20282;-87
2023/01/01 14:22:33;;;;;;;;;;;17.30;97.00;;;;;;5053057;28;20385;-87
2023/01/01 14:24:58;;;;;;;;;;;17.30;96.90;;;;;;5053684;28;19909;-87
2023/01/01 14:27:25;;;;;;;;;;;17.30;96.90;;;;;;5054568;28;20328;-87
2023/01/01 14:29:52;;;;;;;;;;;17.30;96.90;;;;;;5053627;28;19908;-87
2023/01/01 14:32:22;;;;;;;;;;;17.30;96.80;;;;;;5053156;28;19978;-87
2023/01/01 14:34:57;;;;;;;;;;;17.30;96.80;;;;;;5052582;28;20362;-87